Swift Current Airport
CYYN : now visible

Airfield :











YOU CAN JOIN US ON...

 
LOGIN :

Register | Disclaimer

   EN    FR    IT 

 









Legend :    VFR   Marginal VFR   IFR   Intensive IFR   Very Intensive IFR
Visi :
Ceiling :
>= 8 km
>= 3000ft
5 to 8 km
1000 to 3000 ft
1500m to 5 km
500 to 1000 ft
800 to 1500m
200 to 500 ft
< 800m
< 200 ft
Symbols :   Thunderstorms  Fog  Heavy snow  Heavy precipitations  Wind > 20 kt







- Airport Elevation : 2680 ft
- IATA code : YYN


CYYN - Swift Current

CURRENT METAR :
  • 160500Z AUTO 16011KT 9SM FEW240 19/10 A2967 RMK SLP037 DENSITY ALT 4000FT

EXPIRED METARs :
  • 160400Z AUTO 16010KT 9SM FEW230 20/10 A2967 RMK SLP040 DENSITY ALT 4000FT
  • 160300Z AUTO 16012KT 9SM CLR 20/10 A2968 RMK SLP043 DENSITY ALT 4100FT

TAF TAF CYYN
Valid from the 16 at 06:00 until the 16 at 18:00 UTC


160538Z 1606/1618 16010KT P6SM FEW240
BECMG 1607/1609 20008KT
BECMG 1616/1618 18012KT RMK FCST BASED ON AUTO OBS. NXT FCST BY 161200Z
No reported NOTAMs for that airfield.



MET'MAP, your aeronautical weather chart ! - Copyright ORBIFLY December 2007 - Disclaimer

ORBIFLY MET'MAP TEAM :

Programming & Development : Alexandra Zaïnal
Concept & Development : Baudouin d'Aumeries
Co-Development & Prog : Marc-Olivier Méhu
Technical & hardware support : Manuel Goepfert

Contact : metmap@orbifly.com




SOURCES & CREDITS :

   NOAA       Earth
Advisory